Time;durP1;ratioP1;P1;durP2;ratioP2;P2;SDS_P1;SDS_P2;PMS_P1;PMS_P2;Temp;Humidity;BMP_temperature;BMP_pressure;BME280_temperature;BME280_humidity;BME280_pressure;Samples;Min_cycle;Max_cycle;Signal;HPM_P1;HPM_P2
2021/05/04 00:02:08;;;;;;;6.72;2.42;;;;;;;11.60;71.10;100841.94;5094028;28;20102;-76
2021/05/04 00:05:13;;;;;;;5.80;2.40;;;;;;;11.56;71.42;100835.09;5079496;28;20430;-76
2021/05/04 00:08:18;;;;;;;4.82;2.42;;;;;;;11.52;71.01;100842.59;5077210;28;20071;-74
2021/05/04 00:11:22;;;;;;;8.85;2.47;;;;;;;11.49;70.83;100831.22;5073405;28;20052;-75
2021/05/04 00:14:28;;;;;;;9.07;2.53;;;;;;;11.44;70.75;100830.75;5074698;28;20106;-73
2021/05/04 00:17:32;;;;;;;8.68;2.53;;;;;;;11.37;70.69;100832.25;5088072;28;20055;-75
2021/05/04 00:20:36;;;;;;;6.22;2.53;;;;;;;11.33;70.32;100825.44;5094609;28;20067;-77
2021/05/04 00:23:41;;;;;;;8.98;2.55;;;;;;;11.27;70.65;100829.47;5094506;28;20063;-77
2021/05/04 00:26:45;;;;;;;7.55;2.33;;;;;;;11.21;70.13;100823.78;5085277;28;20055;-77
2021/05/04 00:29:49;;;;;;;4.80;2.45;;;;;;;11.20;70.64;100820.22;5087166;28;20051;-77
2021/05/04 00:32:53;;;;;;;7.43;2.50;;;;;;;11.19;70.74;100821.19;5086966;28;20066;-77
2021/05/04 00:35:58;;;;;;;4.68;2.38;;;;;;;11.22;70.65;100812.03;5089863;28;20056;-77
2021/05/04 00:39:03;;;;;;;7.18;2.38;;;;;;;11.25;69.96;100812.63;5073308;28;20056;-77
2021/05/04 00:42:08;;;;;;;6.35;2.30;;;;;;;11.24;70.27;100808.22;5077676;28;20051;-74
2021/05/04 00:45:12;;;;;;;7.22;2.20;;;;;;;11.23;70.13;100803.84;5089615;28;20047;-73
2021/05/04 00:48:17;;;;;;;5.40;2.47;;;;;;;11.19;70.48;100798.84;5081378;28;20047;-74
2021/05/04 00:51:21;;;;;;;6.10;2.50;;;;;;;11.24;70.17;100800.16;5082913;28;20039;-74
2021/05/04 00:54:26;;;;;;;8.20;2.22;;;;;;;11.18;70.12;100802.53;5073892;28;20051;-77
2021/05/04 00:57:34;;;;;;;6.45;2.25;;;;;;;11.17;70.41;100798.97;5084768;28;20047;-77
2021/05/04 01:00:39;;;;;;;5.43;2.33;;;;;;;11.17;70.00;100795.44;5093356;28;20066;-75
2021/05/04 01:03:44;;;;;;;7.43;2.30;;;;;;;11.09;70.38;100798.75;5094172;28;20051;-75
2021/05/04 01:06:49;;;;;;;3.47;1.92;;;;;;;11.04;70.13;100796.44;5089355;28;20043;-76
2021/05/04 01:09:54;;;;;;;7.97;1.98;;;;;;;11.01;69.71;100796.69;5094233;28;20482;-77
2021/05/04 01:12:59;;;;;;;4.07;1.98;;;;;;;11.00;69.18;100789.63;5085781;28;20051;-76
2021/05/04 01:16:03;;;;;;;4.22;1.98;;;;;;;10.93;68.68;100784.91;5073226;28;20388;-76
2021/05/04 01:19:09;;;;;;;4.60;1.92;;;;;;;10.91;68.48;100779.63;5073744;28;20051;-77
2021/05/04 01:22:13;;;;;;;4.18;2.00;;;;;;;10.84;68.75;100775.75;5073587;28;20489;-76
2021/05/04 01:25:22;;;;;;;8.73;3.10;;;;;;;10.77;68.72;100776.38;5073623;28;20059;-77
2021/05/04 01:28:27;;;;;;;5.97;2.03;;;;;;;10.74;68.77;100776.66;5081722;28;20043;-76
2021/05/04 01:31:31;;;;;;;5.13;2.28;;;;;;;10.68;69.01;100772.63;5083307;28;20047;-75
2021/05/04 01:34:36;;;;;;;5.88;1.98;;;;;;;10.64;69.37;100776.53;5072717;28;20051;-75
2021/05/04 01:37:40;;;;;;;6.95;2.00;;;;;;;10.61;69.25;100766.06;5092741;28;20449;-76
2021/05/04 01:40:45;;;;;;;5.05;1.85;;;;;;;10.64;68.97;100760.41;5092373;28;20506;-76
2021/05/04 01:43:49;;;;;;;4.40;2.00;;;;;;;10.60;68.73;100750.06;5092722;28;20055;-76
2021/05/04 01:46:53;;;;;;;5.53;2.00;;;;;;;10.60;68.43;100750.06;5092855;28;20051;-76
2021/05/04 01:49:57;;;;;;;3.92;2.30;;;;;;;10.58;68.43;100752.88;5077157;28;20411;-77
2021/05/04 01:53:03;;;;;;;4.80;1.80;;;;;;;10.59;68.45;100740.31;5020101;28;20145;-77
2021/05/04 01:56:09;;;;;;;7.93;3.03;;;;;;;10.61;68.57;100744.59;4992467;28;20054;-77
2021/05/04 01:59:25;;;;;;;5.40;1.98;;;;;;;10.63;68.08;100742.63;4992407;28;20050;-75
2021/05/04 02:02:17;;;;;;;5.00;1.92;;;;;;;10.60;68.06;100734.81;4997114;28;20444;-76
2021/05/04 02:05:21;;;;;;;5.03;1.85;;;;;;;10.58;68.10;100738.59;4991434;28;20061;-76
2021/05/04 02:08:25;;;;;;;5.53;1.95;;;;;;;10.54;68.15;100732.66;4991278;28;20057;-77
2021/05/04 02:11:30;;;;;;;5.28;1.65;;;;;;;10.55;67.70;100737.00;4987141;28;20548;-76
2021/05/04 02:14:34;;;;;;;4.10;1.80;;;;;;;10.55;67.76;100733.47;4992026;28;20069;-76
2021/05/04 02:17:39;;;;;;;5.72;1.90;;;;;;;10.47;68.04;100736.78;4993198;28;20161;-77
2021/05/04 02:20:43;;;;;;;6.55;2.00;;;;;;;10.43;67.74;100727.28;4984335;28;20513;-77
2021/05/04 02:23:48;;;;;;;5.05;1.80;;;;;;;10.35;67.64;100735.94;4995225;28;20057;-76
2021/05/04 02:26:52;;;;;;;5.57;2.20;;;;;;;10.31;68.24;100730.97;4995221;28;20599;-76
2021/05/04 02:29:56;;;;;;;4.97;1.90;;;;;;;10.27;68.60;100721.47;5004571;28;20182;-76
2021/05/04 02:33:01;;;;;;;4.18;1.88;;;;;;;10.23;68.71;100718.16;5033248;28;20519;-76
2021/05/04 02:36:06;;;;;;;5.22;1.83;;;;;;;10.25;68.33;100728.75;5087105;28;20498;-77
2021/05/04 02:39:10;;;;;;;6.72;1.73;;;;;;;10.19;68.48;100721.22;5086473;28;20510;-76
2021/05/04 02:41:56;;;;;;;5.28;1.83;;;;;;;10.16;68.51;100718.78;5076232;28;20043;-77
2021/05/04 02:45:00;;;;;;;4.32;1.83;;;;;;;10.18;68.19;100719.50;5075155;28;20043;-76
2021/05/04 02:48:04;;;;;;;4.45;2.08;;;;;;;10.11;68.26;100723.63;5076458;28;20060;-73
2021/05/04 02:51:11;;;;;;;7.13;2.30;;;;;;;10.12;67.81;100720.84;5076326;28;20067;-74
2021/05/04 02:54:16;;;;;;;6.07;2.13;;;;;;;10.01;68.06;100725.31;5076078;28;20577;-75
2021/05/04 02:57:21;;;;;;;6.57;2.03;;;;;;;9.95;68.38;100717.78;5075976;28;20044;-76
2021/05/04 03:00:25;;;;;;;3.70;1.88;;;;;;;9.90;67.96;100725.34;5077704;28;20521;-76
2021/05/04 03:03:30;;;;;;;4.78;2.00;;;;;;;9.89;68.24;100723.63;5087628;28;20394;-77
2021/05/04 03:06:34;;;;;;;3.47;1.70;;;;;;;9.80;68.17;100723.38;5079309;28;20051;-77
2021/05/04 03:09:38;;;;;;;3.53;1.80;;;;;;;9.78;68.29;100721.78;5095993;28;20043;-77
2021/05/04 03:12:42;;;;;;;4.30;1.60;;;;;;;9.76;68.00;100721.03;5091564;28;20055;-74
2021/05/04 03:15:46;;;;;;;2.83;1.58;;;;;;;9.74;67.88;100721.19;5075548;28;20051;-73
2021/05/04 03:18:50;;;;;;;;;;;;;;;9.75;67.80;100716.69;5076235;28;20119;-73
2021/05/04 03:21:54;;;;;;;6.20;1.70;;;;;;;9.77;67.48;100715.59;5081257;28;19916;-76
2021/05/04 03:24:59;;;;;;;6.22;2.03;;;;;;;9.77;67.60;100717.41;5078609;28;20059;-74
2021/05/04 03:28:03;;;;;;;9.55;2.40;;;;;;;9.75;67.54;100711.31;5083543;28;20047;-75
2021/05/04 03:31:07;;;;;;;3.78;1.90;;;;;;;9.70;67.02;100713.50;5076650;28;20039;-76
2021/05/04 03:34:12;;;;;;;4.72;1.60;;;;;;;9.68;67.18;100708.25;5087846;28;20043;-77
2021/05/04 03:37:16;;;;;;;5.53;2.05;;;;;;;9.68;67.41;100713.59;5096092;28;20055;-75
2021/05/04 03:40:21;;;;;;;2.78;1.50;;;;;;;9.68;66.98;100708.25;5076136;28;20051;-75
2021/05/04 03:43:25;;;;;;;4.13;1.60;;;;;;;9.62;67.04;100711.44;5077567;28;20490;-75
2021/05/04 03:46:30;;;;;;;4.03;1.65;;;;;;;9.62;66.94;100710.56;5092238;28;20051;-74
2021/05/04 03:49:34;;;;;;;9.73;1.80;;;;;;;9.56;66.59;100711.88;5094835;28;20051;-76
2021/05/04 03:52:38;;;;;;;3.63;1.80;;;;;;;9.61;66.70;100714.19;5090430;28;20048;-77
2021/05/04 04:00:16;;;;;;;4.00;1.50;;;;;;;9.60;66.51;100720.56;5074869;28;20052;-76
2021/05/04 04:03:21;;;;;;;7.18;1.60;;;;;;;9.62;66.41;100716.78;5074703;28;20059;-75
2021/05/04 04:06:25;;;;;;;4.90;1.90;;;;;;;9.70;66.32;100714.34;5094147;28;20051;-75
2021/05/04 04:09:30;;;;;;;6.97;2.33;;;;;;;9.81;66.24;100722.41;5073809;28;20048;-76
2021/05/04 04:12:35;;;;;;;4.13;1.70;;;;;;;9.93;65.99;100717.03;5090974;28;20055;-76
2021/05/04 04:15:39;;;;;;;4.18;1.40;;;;;;;10.01;65.74;100717.28;5074263;28;20048;-76
2021/05/04 04:18:43;;;;;;;4.10;1.67;;;;;;;10.13;66.04;100719.88;5074127;28;20052;-75
2021/05/04 04:21:49;;;;;;;3.42;1.50;;;;;;;10.19;65.57;100721.22;5073994;28;20067;-75
2021/05/04 04:24:54;;;;;;;3.13;1.20;;;;;;;10.26;66.06;100717.91;5076383;28;20055;-75
2021/05/04 04:27:59;;;;;;;5.65;1.40;;;;;;;10.36;65.99;100718.88;5073889;28;20047;-75
2021/05/04 04:31:03;;;;;;;7.20;1.80;;;;;;;10.51;66.40;100718.59;5086647;28;20051;-76
2021/05/04 04:34:08;;;;;;;5.47;1.60;;;;;;;10.79;65.27;100705.44;5094098;28;20043;-77
2021/05/04 04:37:12;;;;;;;7.78;1.80;;;;;;;11.09;64.78;100704.72;5094121;28;20391;-76
2021/05/04 04:40:16;;;;;;;3.65;1.40;;;;;;;11.33;64.32;100704.50;5091953;28;20050;-77
2021/05/04 04:43:21;;;;;;;3.42;1.48;;;;;;;11.63;62.70;100700.00;5093867;28;20067;-76
2021/05/04 04:46:39;;;;;;;3.63;1.65;;;;;;;11.89;61.57;100692.41;5092992;28;20055;-76
2021/05/04 04:49:43;;;;;;;10.07;2.00;;;;;;;12.36;60.14;100704.31;5077659;28;20044;-76
2021/05/04 04:52:47;;;;;;;4.97;1.73;;;;;;;13.01;58.39;100701.03;5074457;28;20122;-77
2021/05/04 04:55:52;;;;;;;4.90;1.95;;;;;;;13.88;55.61;100704.44;5093929;28;20055;-77
2021/05/04 04:58:56;;;;;;;6.45;1.85;;;;;;;14.89;51.51;100705.19;5093834;28;20501;-77
2021/05/04 05:02:01;;;;;;;6.40;4.15;;;;;;;15.81;48.81;100702.97;5094041;28;20062;-78
2021/05/04 05:05:06;;;;;;;27.00;17.35;;;;;;;16.86;45.88;100705.13;5089298;28;20051;-78
2021/05/04 05:08:10;;;;;;;14.38;9.05;;;;;;;17.67;43.86;100705.22;5075421;28;20479;-77
2021/05/04 05:11:15;;;;;;;9.88;2.60;;;;;;;18.50;42.11;100706.50;5088054;28;20051;-77
2021/05/04 05:14:19;;;;;;;9.80;2.35;;;;;;;19.32;39.39;100707.69;5077663;28;20055;-77
2021/05/04 05:17:24;;;;;;;6.82;1.80;;;;;;;19.23;38.13;100722.41;5073567;28;20052;-75
2021/05/04 05:20:29;;;;;;;3.15;1.40;;;;;;;18.76;38.69;100722.53;5092993;28;20051;-78
2021/05/04 05:23:33;;;;;;;3.35;1.50;;;;;;;18.44;38.48;100720.75;5093916;28;20058;-77
2021/05/04 05:26:37;;;;;;;3.25;1.30;;;;;;;18.56;38.58;100729.44;5093107;28;20047;-75
2021/05/04 05:29:42;;;;;;;4.45;1.45;;;;;;;18.65;37.88;100728.34;5093757;28;20047;-77
2021/05/04 05:32:46;;;;;;;3.35;1.00;;;;;;;18.93;37.51;100731.44;5084614;28;20510;-77
2021/05/04 05:35:50;;;;;;;6.88;1.33;;;;;;;19.48;37.18;100731.25;5078793;28;20043;-76
2021/05/04 05:38:55;;;;;;;3.90;1.35;;;;;;;19.57;36.68;100736.44;5073680;28;20051;-78
2021/05/04 05:41:59;;;;;;;5.13;1.27;;;;;;;20.24;35.37;100739.22;5073603;28;20052;-77
2021/05/04 05:45:05;;;;;;;5.68;1.55;;;;;;;20.52;35.23;100726.59;5073503;28;20061;-76
2021/05/04 05:48:10;;;;;;;9.93;1.25;;;;;;;20.88;34.80;100719.31;5072528;28;20410;-77
2021/05/04 05:51:14;;;;;;;3.65;1.38;;;;;;;21.12;33.74;100721.69;5072983;28;20119;-78
2021/05/04 05:54:19;;;;;;;3.53;1.55;;;;;;;21.68;33.62;100719.91;5085503;28;20044;-78
2021/05/04 05:57:23;;;;;;;6.30;1.55;;;;;;;21.88;32.41;100715.50;5087584;28;20395;-77
2021/05/04 06:00:28;;;;;;;11.02;2.40;;;;;;;23.72;30.24;100706.13;5076371;28;20063;-75
2021/05/04 06:03:32;;;;;;;10.95;1.77;;;;;;;26.03;27.39;100704.81;5098316;28;20048;-75
2021/05/04 06:06:37;;;;;;;9.02;2.08;;;;;;;28.01;24.61;100693.66;5094613;28;20406;-76
2021/05/04 06:09:41;;;;;;;8.43;2.30;;;;;;;28.85;22.82;100701.34;5097046;28;20114;-79
2021/05/04 06:12:45;;;;;;;10.38;2.50;;;;;;;29.84;22.47;100697.13;5095346;28;20044;-76
2021/05/04 06:15:50;;;;;;;10.88;2.70;;;;;;;30.72;22.03;100690.66;5085748;28;20067;-72
2021/05/04 06:18:54;;;;;;;7.60;2.50;;;;;;;31.48;21.07;100692.38;5077036;28;20064;-72
2021/05/04 06:21:59;;;;;;;15.00;2.50;;;;;;;32.64;19.57;100694.06;5083958;28;20059;-81
2021/05/04 06:25:03;;;;;;;7.90;2.38;;;;;;;32.85;19.91;100696.94;5087777;28;20387;-71
2021/05/04 06:28:09;;;;;;;10.15;2.53;;;;;;;32.37;19.83;100701.66;5093352;28;20449;-80
2021/05/04 06:31:15;;;;;;;10.82;1.80;;;;;;;33.67;18.38;100691.28;5090026;28;20047;-74
2021/05/04 06:34:20;;;;;;;7.07;1.50;;;;;;;33.54;18.66;100697.38;5080331;28;20056;-73
2021/05/04 06:37:25;;;;;;;7.68;1.90;;;;;;;35.16;16.96;100696.78;5092449;28;20056;-72
2021/05/04 06:40:30;;;;;;;4.25;1.50;;;;;;;37.23;16.61;100703.13;5082363;28;20071;-84
2021/05/04 06:43:35;;;;;;;6.53;1.20;;;;;;;37.03;16.32;100690.25;5086797;28;20402;-73
2021/05/04 06:46:39;;;;;;;3.92;1.20;;;;;;;34.98;16.84;100683.47;5094520;28;20055;-74
2021/05/04 06:49:44;;;;;;;6.22;1.38;;;;;;;34.96;17.33;100680.09;5095722;28;20047;-84
2021/05/04 06:52:49;;;;;;;3.97;1.20;;;;;;;36.12;16.63;100682.09;5072177;28;20055;-77
2021/05/04 06:55:53;;;;;;;6.72;1.20;;;;;;;35.47;17.47;100680.66;5066336;28;20152;-81
2021/05/04 06:58:58;;;;;;;2.58;1.33;;;;;;;33.47;18.05;100683.75;5077739;28;20047;-72
2021/05/04 07:02:03;;;;;;;5.30;1.30;;;;;;;35.48;17.47;100675.91;5066947;28;20051;-75
2021/05/04 07:05:08;;;;;;;6.20;1.30;;;;;;;35.85;17.13;100677.00;5071629;28;20059;-73
2021/05/04 07:08:12;;;;;;;4.18;1.25;;;;;;;38.76;15.41;100670.13;5069773;28;20076;-75
2021/05/04 07:11:17;;;;;;;5.20;1.30;;;;;;;38.40;15.24;100671.97;5067205;28;20078;-73
2021/05/04 07:14:22;;;;;;;4.60;1.20;;;;;;;38.96;15.59;100666.03;5073992;28;20063;-73
2021/05/04 07:17:27;;;;;;;6.25;1.50;;;;;;;38.36;15.56;100666.19;5065405;28;20062;-76
2021/05/04 07:20:31;;;;;;;9.52;1.42;;;;;;;37.98;15.91;100661.00;5071218;28;20506;-83
2021/05/04 07:23:37;;;;;;;3.72;1.10;;;;;;;38.86;14.81;100669.06;5064060;28;20055;-77
2021/05/04 07:26:41;;;;;;;5.78;1.33;;;;;;;39.37;14.35;100661.16;5050013;28;20059;-78
2021/05/04 07:29:46;;;;;;;6.90;1.10;;;;;;;39.70;14.11;100650.50;5047579;28;20048;-79
2021/05/04 07:32:51;;;;;;;4.75;1.30;;;;;;;40.42;13.81;100653.84;5057551;28;20431;-81
2021/05/04 07:35:58;;;;;;;6.97;1.40;;;;;;;39.52;14.30;100654.31;5068996;28;20043;-82
2021/05/04 07:39:03;;;;;;;6.47;1.45;;;;;;;40.02;14.03;100650.22;5062483;28;20391;-85
2021/05/04 07:42:09;;;;;;;4.88;1.70;;;;;;;39.78;14.73;100649.72;5062067;28;20131;-84
2021/05/04 07:45:14;;;;;;;4.13;1.73;;;;;;;40.09;13.94;100650.59;5062224;28;20051;-84
2021/05/04 07:48:18;;;;;;;5.50;1.52;;;;;;;39.90;13.69;100652.75;5062453;28;20047;-81
2021/05/04 07:51:23;;;;;;;4.78;1.30;;;;;;;41.27;13.50;100646.78;5062056;28;20047;-82
2021/05/04 07:54:30;;;;;;;5.82;1.50;;;;;;;40.48;13.76;100651.75;5050798;28;20052;-84
2021/05/04 07:57:36;;;;;;;6.85;1.70;;;;;;;40.78;13.68;100643.25;5061900;28;20055;-84
2021/05/04 08:00:41;;;;;;;6.45;1.40;;;;;;;41.41;13.47;100650.28;5050509;28;20051;-83
2021/05/04 08:03:45;;;;;;;6.38;1.60;;;;;;;41.50;13.54;100637.00;5061761;28;20051;-84
2021/05/04 08:06:50;;;;;;;5.07;1.58;;;;;;;40.73;14.01;100639.75;5066072;28;20398;-77
2021/05/04 08:10:08;;;;;;;3.40;1.55;;;;;;;41.72;14.48;100647.28;5067352;28;20042;-75
2021/05/04 08:13:13;;;;;;;4.15;1.60;;;;;;;41.89;14.21;100641.59;5081889;28;20058;-77
2021/05/04 08:16:18;;;;;;;3.97;1.42;;;;;;;41.31;14.03;100634.53;5080928;28;20058;-82
2021/05/04 08:19:22;;;;;;;5.50;1.70;;;;;;;40.31;14.41;100631.97;5064958;28;20047;-81
2021/05/04 08:22:27;;;;;;;5.25;1.80;;;;;;;39.15;15.31;100630.19;5061672;28;20506;-83
2021/05/04 08:25:31;;;;;;;6.25;1.90;;;;;;;39.75;15.40;100627.88;5050104;28;20047;-78
2021/05/04 08:28:35;;;;;;;6.57;2.53;;;;;;;39.84;15.38;100630.72;5061632;28;20051;-82
2021/05/04 08:31:40;;;;;;;5.47;1.88;;;;;;;36.76;17.58;100633.22;5050066;28;20506;-80
2021/05/04 08:34:44;;;;;;;3.67;1.60;;;;;;;33.05;20.46;100644.16;5050052;28;20075;-74
2021/05/04 08:37:48;;;;;;;5.47;2.53;;;;;;;32.00;21.96;100646.16;5061027;28;20047;-78
2021/05/04 08:40:52;;;;;;;6.90;2.30;;;;;;;28.77;25.65;100649.22;5050590;28;20522;-79
2021/05/04 08:43:57;;;;;;;3.70;1.90;;;;;;;27.56;26.94;100643.72;5060902;28;20372;-78
2021/05/04 08:47:03;;;;;;;6.25;2.13;;;;;;;26.97;28.17;100633.59;5052764;28;20175;-79
2021/05/04 08:50:08;;;;;;;7.05;2.08;;;;;;;26.35;29.25;100645.00;5078331;28;20106;-78
2021/05/04 08:53:13;;;;;;;7.55;2.00;;;;;;;25.54;30.52;100644.34;5080975;28;20525;-79
2021/05/04 08:56:17;;;;;;;7.13;2.50;;;;;;;24.20;32.12;100653.75;5061145;28;20040;-78
2021/05/04 08:59:21;;;;;;;5.93;2.60;;;;;;;23.42;34.30;100654.66;5060858;28;20391;-80
2021/05/04 09:02:25;;;;;;;9.40;2.50;;;;;;;24.05;33.47;100655.88;5051671;28;20056;-79
2021/05/04 09:05:42;;;;;;;7.82;2.28;;;;;;;23.91;34.05;100646.81;5066990;28;20055;-79
2021/05/04 09:08:52;;;;;;;10.32;2.65;;;;;;;23.84;34.37;100640.50;5081181;28;20071;-75
2021/05/04 09:15:20;;;;;;;8.25;3.00;;;;;;;22.67;35.81;100634.72;5060848;28;20051;-75
2021/05/04 09:21:52;;;;;;;7.60;2.55;;;;;;;22.28;37.47;100623.59;5064286;28;20403;-79
2021/05/04 09:24:56;;;;;;;12.18;2.92;;;;;;;22.31;36.84;100615.00;5080575;28;20047;-80
2021/05/04 09:28:06;;;;;;;5.57;2.40;;;;;;;22.32;35.69;100613.13;5063912;28;20044;-80
2021/05/04 09:31:21;;;;;;;9.20;2.28;;;;;;;22.33;36.51;100618.38;5064597;28;20052;-79
2021/05/04 09:34:25;;;;;;;9.80;2.40;;;;;;;22.46;36.21;100625.78;5053451;28;20071;-79
2021/05/04 09:37:38;;;;;;;9.43;2.05;;;;;;;22.29;35.59;100619.84;5064527;28;20055;-79
2021/05/04 09:40:44;;;;;;;10.00;2.93;;;;;;;21.97;36.41;100612.31;5064324;28;20052;-80
2021/05/04 09:43:48;;;;;;;7.15;2.50;;;;;;;22.26;36.97;100613.91;5053482;28;20055;-78
2021/05/04 09:46:52;;;;;;;12.05;3.20;;;;;;;22.18;37.37;100601.25;5064514;28;20044;-78
2021/05/04 09:49:58;;;;;;;6.57;3.35;;;;;;;22.34;36.61;100603.66;5052663;28;20056;-81
2021/05/04 09:53:07;;;;;;;6.22;3.35;;;;;;;22.16;37.31;100597.03;5052841;28;20052;-80
2021/05/04 09:56:16;;;;;;;9.63;2.85;;;;;;;21.98;37.54;100594.84;5052115;28;20499;-80
2021/05/04 09:59:20;;;;;;;6.30;2.30;;;;;;;22.11;38.14;100589.44;5067369;28;20051;-79
2021/05/04 10:02:24;;;;;;;8.68;2.72;;;;;;;21.76;37.73;100598.69;5084568;28;20051;-80
2021/05/04 10:05:29;;;;;;;6.88;2.55;;;;;;;21.76;37.70;100588.59;5084047;28;20047;-80
2021/05/04 10:08:34;;;;;;;9.52;2.65;;;;;;;21.94;38.20;100585.38;5084132;28;20043;-80
2021/05/04 10:11:42;;;;;;;8.23;2.97;;;;;;;21.92;37.50;100577.34;5063893;28;20044;-78
2021/05/04 10:14:51;;;;;;;5.18;2.63;;;;;;;21.86;37.14;100575.44;5063963;28;20474;-80
2021/05/04 10:17:56;;;;;;;6.20;2.60;;;;;;;21.76;36.34;100568.63;5063427;28;20063;-79
2021/05/04 10:21:05;;;;;;;7.38;2.90;;;;;;;21.48;37.44;100555.00;5069352;28;20056;-76
2021/05/04 10:24:10;;;;;;;7.63;2.63;;;;;;;21.51;38.22;100551.03;5074972;28;20051;-75
2021/05/04 10:27:19;;;;;;;8.98;3.15;;;;;;;21.51;38.03;100549.13;5063598;28;20059;-77
2021/05/04 10:30:24;;;;;;;10.02;2.72;;;;;;;21.50;38.80;100542.00;5060960;28;20059;-76
2021/05/04 10:33:31;;;;;;;6.75;3.00;;;;;;;21.71;38.25;100535.59;5057137;28;20051;-77
2021/05/04 10:36:36;;;;;;;6.47;2.60;;;;;;;21.85;38.24;100537.41;5083687;28;20055;-76
2021/05/04 10:39:42;;;;;;;9.60;2.63;;;;;;;21.84;37.38;100533.78;5082366;28;20142;-77
2021/05/04 10:42:46;;;;;;;7.25;2.58;;;;;;;21.61;38.07;100532.38;5072204;28;20055;-78
2021/05/04 10:45:53;;;;;;;5.35;2.50;;;;;;;21.70;38.14;100529.28;5083635;28;20055;-78
2021/05/04 10:48:57;;;;;;;7.72;3.00;;;;;;;21.84;38.05;100516.53;5083474;28;20047;-77
2021/05/04 10:52:02;;;;;;;6.93;2.38;;;;;;;21.94;38.48;100517.03;5083300;28;20063;-77
2021/05/04 10:55:06;;;;;;;8.60;2.95;;;;;;;22.08;37.74;100510.56;5083100;28;20059;-75
2021/05/04 10:58:11;;;;;;;6.95;2.78;;;;;;;22.04;37.28;100512.03;5082792;28;20059;-76
2021/05/04 11:01:18;;;;;;;8.30;3.30;;;;;;;21.96;37.76;100507.59;5058271;28;20499;-77
2021/05/04 11:04:38;;;;;;;8.20;3.30;;;;;;;21.88;37.93;100491.34;5074640;28;20048;-76
2021/05/04 11:07:57;;;;;;;5.80;2.60;;;;;;;21.79;37.64;100492.56;5074212;28;20043;-77
2021/05/04 11:11:41;;;;;;;9.23;2.97;;;;;;;21.79;37.90;100487.09;5087435;28;20055;-77
2021/05/04 11:14:45;;;;;;;7.55;2.95;;;;;;;21.77;38.36;100486.47;5095024;28;20048;-73
2021/05/04 11:17:49;;;;;;;6.53;2.80;;;;;;;21.87;38.54;100476.00;5095079;28;20043;-74
2021/05/04 11:20:54;;;;;;;6.65;2.72;;;;;;;21.78;38.14;100481.81;5095091;28;20047;-75
2021/05/04 11:24:06;;;;;;;8.82;3.20;;;;;;;21.76;38.06;100459.31;5094089;28;20059;-77
2021/05/04 11:27:18;;;;;;;9.10;2.55;;;;;;;21.82;37.99;100469.44;5095059;28;20501;-75
2021/05/04 11:30:53;;;;;;;5.90;3.20;;;;;;;21.68;38.19;100457.59;5095321;28;20051;-76
2021/05/04 11:34:36;;;;;;;8.63;3.22;;;;;;;21.64;37.57;100460.94;5008074;28;20049;-75
2021/05/04 11:37:45;;;;;;;7.67;2.57;;;;;;;21.79;37.56;100443.38;5013115;28;20164;-76
2021/05/04 11:40:51;;;;;;;7.05;2.58;;;;;;;21.83;38.52;100441.03;5001414;28;20818;-76
2021/05/04 11:43:56;;;;;;;6.80;2.78;;;;;;;21.77;38.75;100433.69;5012761;28;20544;-76
2021/05/04 11:47:21;;;;;;;7.82;3.17;;;;;;;21.63;39.34;100437.41;5000470;28;20052;-77
2021/05/04 11:50:28;;;;;;;8.25;3.47;;;;;;;21.54;38.50;100442.22;4990057;28;20108;-74
2021/05/04 11:53:32;;;;;;;4.63;2.75;;;;;;;21.54;38.66;100427.69;4993095;28;20053;-73
2021/05/04 11:56:37;;;;;;;7.30;2.90;;;;;;;21.55;39.34;100415.75;5011421;28;20053;-74
2021/05/04 11:59:41;;;;;;;6.25;2.90;;;;;;;21.63;39.11;100415.53;5012170;28;20057;-75
2021/05/04 12:02:46;;;;;;;8.48;2.53;;;;;;;21.78;39.47;100414.34;5011957;28;20053;-75
2021/05/04 12:05:52;;;;;;;6.20;2.63;;;;;;;21.93;38.71;100419.66;5011984;28;20449;-78
2021/05/04 12:09:10;;;;;;;6.95;2.80;;;;;;;21.87;37.12;100406.84;5020414;28;20547;-78
2021/05/04 12:12:14;;;;;;;7.68;2.75;;;;;;;21.82;37.03;100406.59;5073646;28;20505;-78
2021/05/04 12:15:22;;;;;;;5.28;2.30;;;;;;;21.85;36.18;100403.47;5084536;28;20064;-78
2021/05/04 12:18:35;;;;;;;7.43;2.17;;;;;;;21.82;36.30;100396.50;5080668;28;20056;-77
2021/05/04 12:21:50;;;;;;;7.32;2.25;;;;;;;21.76;36.59;100383.66;5073943;28;20048;-78
2021/05/04 12:24:58;;;;;;;6.95;2.40;;;;;;;21.65;36.43;100386.16;5073630;28;20092;-77
2021/05/04 12:28:04;;;;;;;6.55;2.15;;;;;;;21.53;36.60;100372.22;5090174;28;20047;-77
2021/05/04 12:31:12;;;;;;;5.78;2.05;;;;;;;21.67;36.78;100365.78;5093012;28;20066;-77
2021/05/04 12:34:22;;;;;;;6.63;2.78;;;;;;;21.79;37.34;100360.53;5094008;28;20059;-76
2021/05/04 12:37:29;;;;;;;11.02;2.28;;;;;;;21.73;36.62;100359.47;5093748;28;20047;-75
2021/05/04 12:40:36;;;;;;;5.78;2.80;;;;;;;21.74;36.36;100350.22;5085978;28;20066;-76
2021/05/04 12:43:43;;;;;;;7.45;2.75;;;;;;;21.67;37.17;100345.78;5092337;28;20411;-75
2021/05/04 12:46:50;;;;;;;10.18;4.03;;;;;;;21.67;36.67;100340.34;5092499;28;20114;-75
2021/05/04 12:49:54;;;;;;;22.38;15.40;;;;;;;21.76;37.25;100339.09;5087470;28;20525;-78
2021/05/04 12:53:01;;;;;;;12.75;3.60;;;;;;;21.78;37.91;100332.34;5092695;28;20056;-76
2021/05/04 12:56:09;;;;;;;7.00;2.80;;;;;;;21.92;38.05;100325.06;5090790;28;20055;-78
2021/05/04 12:59:16;;;;;;;7.80;3.08;;;;;;;21.87;37.17;100316.66;5093332;28;20126;-77
2021/05/04 13:02:22;;;;;;;6.72;2.08;;;;;;;21.93;36.19;100318.53;5092546;28;20055;-76
2021/05/04 13:05:27;;;;;;;6.47;2.05;;;;;;;21.85;36.45;100310.56;5092892;28;20043;-75
2021/05/04 13:08:52;;;;;;;5.85;2.38;;;;;;;21.99;36.78;100307.63;5092302;28;20051;-78
2021/05/04 13:29:36;;;;;;;7.75;1.95;;;;;;;22.09;34.93;100265.34;5083921;28;20051;-77
2021/05/04 13:32:26;;;;;;;5.70;1.60;;;;;;;22.13;35.75;100256.50;5084971;28;20055;-78
2021/05/04 13:35:36;;;;;;;5.57;2.72;;;;;;;22.24;35.17;100247.66;5093201;28;20055;-78
2021/05/04 13:38:50;;;;;;;7.70;1.80;;;;;;;22.22;35.01;100247.00;5091109;28;20044;-77
2021/05/04 13:48:27;;;;;;;6.88;2.67;;;;;;;22.36;33.87;100229.56;5072498;28;20060;-76
2021/05/04 13:51:31;;;;;;;4.45;1.98;;;;;;;22.39;34.39;100225.56;5084329;28;20112;-77
2021/05/04 13:54:36;;;;;;;4.55;2.10;;;;;;;22.46;34.18;100229.94;5080378;28;20059;-78
2021/05/04 13:57:42;;;;;;;4.13;2.00;;;;;;;22.44;33.37;100223.00;5092869;28;20462;-77
2021/05/04 14:27:10;;;;;;;5.82;2.15;;;;;;;22.46;34.76;100177.13;5075313;28;20067;-73
2021/05/04 14:30:16;;;;;;;29.38;21.10;;;;;;;22.53;34.88;100167.00;5085524;28;20058;-76
2021/05/04 14:33:21;;;;;;;5.45;2.40;;;;;;;22.61;35.90;100167.59;5076192;28;20049;-75
2021/05/04 14:57:03;;;;;;;6.25;2.33;;;;;;;22.75;33.34;100137.47;4958423;28;20058;-76
2021/05/04 15:03:28;;;;;;;4.18;1.55;;;;;;;22.92;32.50;100131.25;5013768;28;20065;-77
2021/05/04 15:06:34;;;;;;;5.05;1.80;;;;;;;22.96;33.19;100129.75;5020303;28;20154;-78
2021/05/04 15:09:39;;;;;;;3.65;1.80;;;;;;;23.06;33.00;100129.28;5033837;28;20128;-76
2021/05/04 15:12:44;;;;;;;4.15;1.60;;;;;;;23.05;32.50;100113.91;5033460;28;20048;-77
2021/05/04 15:22:20;;;;;;;5.82;2.45;;;;;;;23.06;26.41;100101.91;5017657;28;20396;-74
2021/05/04 15:25:26;;;;;;;3.28;1.13;;;;;;;23.03;26.45;100108.66;5071572;28;20052;-75
2021/05/04 15:28:31;;;;;;;4.05;1.48;;;;;;;23.15;26.95;100106.03;5070586;28;20391;-75
2021/05/04 15:31:48;;;;;;;5.00;1.40;;;;;;;23.10;26.49;100103.97;5070315;28;20059;-75
2021/05/04 15:34:56;;;;;;;4.78;1.50;;;;;;;23.08;26.91;100097.03;5071967;28;20047;-74
2021/05/04 15:38:02;;;;;;;4.38;1.50;;;;;;;22.93;26.54;100096.50;5071998;28;20127;-74
2021/05/04 15:41:06;;;;;;;3.90;1.52;;;;;;;22.90;27.04;100097.78;5072196;28;20047;-75
2021/05/04 15:44:12;;;;;;;6.45;1.27;;;;;;;22.94;27.32;100092.69;5074524;28;20044;-75
2021/05/04 15:47:28;;;;;;;4.10;1.85;;;;;;;22.93;26.01;100085.56;5075072;28;20071;-75
2021/05/04 16:03:41;;;;;;;3.42;1.60;;;;;;;22.63;26.60;100077.97;5074455;28;20526;-75
2021/05/04 16:06:51;;;;;;;4.18;1.50;;;;;;;22.53;26.77;100077.56;5075042;28;20068;-75
2021/05/04 16:09:55;;;;;;;5.10;1.40;;;;;;;22.56;27.29;100068.94;5074698;28;20103;-75